sensor_id;sensor_type;location;lat;lon;timestamp;P1;durP1;ratioP1;P2;durP2;ratioP2
62006;SDS011;47963;53.008;6.754;2022-07-30T00:00:22;9.40;;;5.90;;
62006;SDS011;47963;53.008;6.754;2022-07-30T00:02:48;10.82;;;5.85;;
62006;SDS011;47963;53.008;6.754;2022-07-30T00:05:14;10.00;;;6.45;;
62006;SDS011;47963;53.008;6.754;2022-07-30T00:07:40;10.50;;;6.10;;
62006;SDS011;47963;53.008;6.754;2022-07-30T00:10:06;10.98;;;6.38;;
62006;SDS011;47963;53.008;6.754;2022-07-30T00:12:31;11.60;;;6.60;;
62006;SDS011;47963;53.008;6.754;2022-07-30T00:14:57;11.45;;;6.88;;
62006;SDS011;47963;53.008;6.754;2022-07-30T00:17:23;9.82;;;6.00;;
62006;SDS011;47963;53.008;6.754;2022-07-30T00:19:48;10.30;;;6.72;;
62006;SDS011;47963;53.008;6.754;2022-07-30T00:22:14;10.63;;;6.13;;
62006;SDS011;47963;53.008;6.754;2022-07-30T00:24:39;13.45;;;7.40;;
62006;SDS011;47963;53.008;6.754;2022-07-30T00:27:05;11.32;;;6.90;;
62006;SDS011;47963;53.008;6.754;2022-07-30T00:29:31;12.57;;;7.38;;
62006;SDS011;47963;53.008;6.754;2022-07-30T00:31:56;11.30;;;6.88;;
62006;SDS011;47963;53.008;6.754;2022-07-30T00:34:22;12.13;;;7.25;;
62006;SDS011;47963;53.008;6.754;2022-07-30T00:36:48;9.60;;;7.05;;
62006;SDS011;47963;53.008;6.754;2022-07-30T00:39:13;11.30;;;6.85;;
62006;SDS011;47963;53.008;6.754;2022-07-30T00:44:37;11.30;;;7.32;;
62006;SDS011;47963;53.008;6.754;2022-07-30T00:47:02;10.63;;;6.88;;
62006;SDS011;47963;53.008;6.754;2022-07-30T00:49:28;12.05;;;7.40;;
62006;SDS011;47963;53.008;6.754;2022-07-30T00:51:54;11.48;;;6.95;;
62006;SDS011;47963;53.008;6.754;2022-07-30T00:54:19;10.63;;;7.18;;
62006;SDS011;47963;53.008;6.754;2022-07-30T00:56:46;11.88;;;7.32;;
62006;SDS011;47963;53.008;6.754;2022-07-30T00:59:12;12.38;;;7.43;;
62006;SDS011;47963;53.008;6.754;2022-07-30T01:01:38;11.25;;;7.07;;
62006;SDS011;47963;53.008;6.754;2022-07-30T01:04:04;11.13;;;7.10;;
62006;SDS011;47963;53.008;6.754;2022-07-30T01:06:35;10.23;;;7.30;;
62006;SDS011;47963;53.008;6.754;2022-07-30T01:09:01;10.93;;;6.53;;
62006;SDS011;47963;53.008;6.754;2022-07-30T01:11:34;11.48;;;6.47;;
62006;SDS011;47963;53.008;6.754;2022-07-30T01:14:02;10.95;;;6.93;;
62006;SDS011;47963;53.008;6.754;2022-07-30T01:16:35;10.27;;;6.57;;
62006;SDS011;47963;53.008;6.754;2022-07-30T01:19:03;11.45;;;6.65;;
62006;SDS011;47963;53.008;6.754;2022-07-30T01:21:53;10.93;;;6.78;;
62006;SDS011;47963;53.008;6.754;2022-07-30T01:24:37;10.85;;;6.90;;
62006;SDS011;47963;53.008;6.754;2022-07-30T01:27:06;10.75;;;7.22;;
62006;SDS011;47963;53.008;6.754;2022-07-30T01:29:35;10.98;;;7.30;;
62006;SDS011;47963;53.008;6.754;2022-07-30T01:32:04;12.63;;;7.60;;
62006;SDS011;47963;53.008;6.754;2022-07-30T01:34:32;10.68;;;7.38;;
62006;SDS011;47963;53.008;6.754;2022-07-30T01:36:59;10.82;;;7.32;;
62006;SDS011;47963;53.008;6.754;2022-07-30T01:39:27;11.85;;;7.65;;
62006;SDS011;47963;53.008;6.754;2022-07-30T01:41:54;10.88;;;8.00;;
62006;SDS011;47963;53.008;6.754;2022-07-30T01:44:22;10.77;;;6.78;;
62006;SDS011;47963;53.008;6.754;2022-07-30T01:46:49;12.18;;;7.07;;
62006;SDS011;47963;53.008;6.754;2022-07-30T01:49:17;10.52;;;7.20;;
62006;SDS011;47963;53.008;6.754;2022-07-30T01:51:45;10.68;;;7.45;;
62006;SDS011;47963;53.008;6.754;2022-07-30T01:54:12;12.30;;;7.68;;
62006;SDS011;47963;53.008;6.754;2022-07-30T01:56:41;11.13;;;8.35;;
62006;SDS011;47963;53.008;6.754;2022-07-30T01:59:08;10.35;;;7.72;;
62006;SDS011;47963;53.008;6.754;2022-07-30T02:01:34;10.90;;;7.95;;
62006;SDS011;47963;53.008;6.754;2022-07-30T02:04:01;11.85;;;7.82;;
62006;SDS011;47963;53.008;6.754;2022-07-30T02:06:31;11.10;;;8.40;;
62006;SDS011;47963;53.008;6.754;2022-07-30T02:09:03;12.30;;;9.43;;
62006;SDS011;47963;53.008;6.754;2022-07-30T02:11:30;12.40;;;9.57;;
62006;SDS011;47963;53.008;6.754;2022-07-30T02:14:41;13.27;;;9.18;;
62006;SDS011;47963;53.008;6.754;2022-07-30T02:17:18;12.35;;;8.45;;
62006;SDS011;47963;53.008;6.754;2022-07-30T02:19:48;11.30;;;7.85;;
62006;SDS011;47963;53.008;6.754;2022-07-30T02:22:18;10.20;;;6.75;;
62006;SDS011;47963;53.008;6.754;2022-07-30T02:24:47;9.13;;;5.70;;
62006;SDS011;47963;53.008;6.754;2022-07-30T02:27:15;9.93;;;6.93;;
62006;SDS011;47963;53.008;6.754;2022-07-30T02:29:45;9.43;;;6.53;;
62006;SDS011;47963;53.008;6.754;2022-07-30T02:32:13;9.63;;;6.57;;
62006;SDS011;47963;53.008;6.754;2022-07-30T02:34:41;11.15;;;7.30;;
62006;SDS011;47963;53.008;6.754;2022-07-30T02:37:09;9.50;;;7.00;;
62006;SDS011;47963;53.008;6.754;2022-07-30T02:39:38;11.32;;;7.53;;
62006;SDS011;47963;53.008;6.754;2022-07-30T02:42:05;10.00;;;7.70;;
62006;SDS011;47963;53.008;6.754;2022-07-30T02:44:33;12.50;;;8.73;;
62006;SDS011;47963;53.008;6.754;2022-07-30T02:47:01;14.48;;;10.30;;
62006;SDS011;47963;53.008;6.754;2022-07-30T02:49:28;12.90;;;9.82;;
62006;SDS011;47963;53.008;6.754;2022-07-30T02:51:55;12.52;;;9.68;;
62006;SDS011;47963;53.008;6.754;2022-07-30T02:54:22;17.15;;;10.95;;
62006;SDS011;47963;53.008;6.754;2022-07-30T02:56:50;13.68;;;10.70;;
62006;SDS011;47963;53.008;6.754;2022-07-30T02:59:17;14.55;;;11.23;;
62006;SDS011;47963;53.008;6.754;2022-07-30T03:01:46;14.35;;;10.30;;
62006;SDS011;47963;53.008;6.754;2022-07-30T03:04:13;16.20;;;12.43;;
62006;SDS011;47963;53.008;6.754;2022-07-30T03:06:40;13.98;;;12.45;;
62006;SDS011;47963;53.008;6.754;2022-07-30T03:09:06;15.02;;;11.68;;
62006;SDS011;47963;53.008;6.754;2022-07-30T03:11:34;14.05;;;11.40;;
62006;SDS011;47963;53.008;6.754;2022-07-30T03:14:00;16.08;;;12.48;;
62006;SDS011;47963;53.008;6.754;2022-07-30T03:16:27;14.18;;;11.80;;
62006;SDS011;47963;53.008;6.754;2022-07-30T03:18:53;15.48;;;12.35;;
62006;SDS011;47963;53.008;6.754;2022-07-30T03:21:21;17.80;;;14.05;;
62006;SDS011;47963;53.008;6.754;2022-07-30T03:23:50;17.45;;;13.40;;
62006;SDS011;47963;53.008;6.754;2022-07-30T03:26:19;18.75;;;14.50;;
62006;SDS011;47963;53.008;6.754;2022-07-30T03:28:46;18.92;;;15.25;;
62006;SDS011;47963;53.008;6.754;2022-07-30T03:31:13;18.42;;;15.40;;
62006;SDS011;47963;53.008;6.754;2022-07-30T03:33:39;20.15;;;18.00;;
62006;SDS011;47963;53.008;6.754;2022-07-30T03:36:06;20.48;;;16.58;;
62006;SDS011;47963;53.008;6.754;2022-07-30T03:38:37;18.52;;;15.23;;
62006;SDS011;47963;53.008;6.754;2022-07-30T03:41:05;19.38;;;16.50;;
62006;SDS011;47963;53.008;6.754;2022-07-30T03:43:31;17.50;;;15.70;;
62006;SDS011;47963;53.008;6.754;2022-07-30T03:45:58;20.48;;;16.67;;
62006;SDS011;47963;53.008;6.754;2022-07-30T03:48:27;21.15;;;16.27;;
62006;SDS011;47963;53.008;6.754;2022-07-30T03:50:53;18.08;;;15.95;;
62006;SDS011;47963;53.008;6.754;2022-07-30T03:53:19;18.98;;;16.27;;
62006;SDS011;47963;53.008;6.754;2022-07-30T03:55:49;17.15;;;15.35;;
62006;SDS011;47963;53.008;6.754;2022-07-30T03:58:16;20.17;;;16.02;;
62006;SDS011;47963;53.008;6.754;2022-07-30T04:00:42;19.92;;;16.65;;
62006;SDS011;47963;53.008;6.754;2022-07-30T04:03:13;18.58;;;15.95;;
62006;SDS011;47963;53.008;6.754;2022-07-30T04:05:48;20.70;;;16.60;;
62006;SDS011;47963;53.008;6.754;2022-07-30T04:08:13;18.90;;;16.42;;
62006;SDS011;47963;53.008;6.754;2022-07-30T04:10:39;18.33;;;15.90;;
62006;SDS011;47963;53.008;6.754;2022-07-30T04:13:05;18.98;;;15.15;;
62006;SDS011;47963;53.008;6.754;2022-07-30T04:15:31;17.20;;;14.60;;
62006;SDS011;47963;53.008;6.754;2022-07-30T04:18:05;17.45;;;14.98;;
62006;SDS011;47963;53.008;6.754;2022-07-30T04:20:38;17.23;;;14.10;;
62006;SDS011;47963;53.008;6.754;2022-07-30T04:23:06;16.05;;;14.18;;
62006;SDS011;47963;53.008;6.754;2022-07-30T04:25:35;15.73;;;13.25;;
62006;SDS011;47963;53.008;6.754;2022-07-30T04:28:03;17.33;;;14.25;;
62006;SDS011;47963;53.008;6.754;2022-07-30T04:30:30;17.17;;;14.95;;
62006;SDS011;47963;53.008;6.754;2022-07-30T04:32:58;15.98;;;13.95;;
62006;SDS011;47963;53.008;6.754;2022-07-30T04:35:25;17.73;;;14.00;;
62006;SDS011;47963;53.008;6.754;2022-07-30T04:37:52;16.77;;;14.23;;
62006;SDS011;47963;53.008;6.754;2022-07-30T04:40:18;16.30;;;13.90;;
62006;SDS011;47963;53.008;6.754;2022-07-30T04:42:44;17.02;;;13.77;;
62006;SDS011;47963;53.008;6.754;2022-07-30T04:45:09;16.73;;;13.63;;
62006;SDS011;47963;53.008;6.754;2022-07-30T04:47:35;16.50;;;13.82;;
62006;SDS011;47963;53.008;6.754;2022-07-30T04:50:01;16.80;;;14.38;;
62006;SDS011;47963;53.008;6.754;2022-07-30T04:52:30;15.65;;;13.15;;
62006;SDS011;47963;53.008;6.754;2022-07-30T04:55:01;16.75;;;12.63;;
62006;SDS011;47963;53.008;6.754;2022-07-30T04:57:29;16.52;;;12.68;;
62006;SDS011;47963;53.008;6.754;2022-07-30T04:59:56;13.70;;;11.70;;
62006;SDS011;47963;53.008;6.754;2022-07-30T05:02:23;14.20;;;11.10;;
62006;SDS011;47963;53.008;6.754;2022-07-30T05:04:53;14.73;;;12.77;;
62006;SDS011;47963;53.008;6.754;2022-07-30T05:07:20;16.60;;;12.75;;
62006;SDS011;47963;53.008;6.754;2022-07-30T05:09:46;13.98;;;11.90;;
62006;SDS011;47963;53.008;6.754;2022-07-30T05:12:12;16.85;;;12.77;;
62006;SDS011;47963;53.008;6.754;2022-07-30T05:14:38;18.50;;;13.55;;
62006;SDS011;47963;53.008;6.754;2022-07-30T05:17:04;19.42;;;15.25;;
62006;SDS011;47963;53.008;6.754;2022-07-30T05:19:29;18.42;;;15.85;;
62006;SDS011;47963;53.008;6.754;2022-07-30T05:21:55;15.80;;;14.13;;
62006;SDS011;47963;53.008;6.754;2022-07-30T05:24:21;19.95;;;16.00;;
62006;SDS011;47963;53.008;6.754;2022-07-30T05:26:46;18.45;;;16.08;;
62006;SDS011;47963;53.008;6.754;2022-07-30T05:29:12;19.30;;;16.75;;
62006;SDS011;47963;53.008;6.754;2022-07-30T05:31:38;21.15;;;18.45;;
62006;SDS011;47963;53.008;6.754;2022-07-30T05:34:04;26.10;;;18.52;;
62006;SDS011;47963;53.008;6.754;2022-07-30T05:36:29;22.83;;;17.25;;
62006;SDS011;47963;53.008;6.754;2022-07-30T05:38:55;22.88;;;18.27;;
62006;SDS011;47963;53.008;6.754;2022-07-30T05:41:21;21.73;;;18.95;;
62006;SDS011;47963;53.008;6.754;2022-07-30T05:43:46;20.33;;;17.80;;
62006;SDS011;47963;53.008;6.754;2022-07-30T05:46:12;20.50;;;18.17;;
62006;SDS011;47963;53.008;6.754;2022-07-30T05:48:37;22.30;;;19.08;;
62006;SDS011;47963;53.008;6.754;2022-07-30T05:51:03;21.13;;;18.92;;
62006;SDS011;47963;53.008;6.754;2022-07-30T05:53:29;22.30;;;20.00;;
62006;SDS011;47963;53.008;6.754;2022-07-30T05:55:56;21.90;;;19.35;;
62006;SDS011;47963;53.008;6.754;2022-07-30T05:58:22;23.83;;;18.67;;
62006;SDS011;47963;53.008;6.754;2022-07-30T06:00:48;24.70;;;20.77;;
62006;SDS011;47963;53.008;6.754;2022-07-30T06:03:14;20.95;;;18.67;;
62006;SDS011;47963;53.008;6.754;2022-07-30T06:05:39;22.60;;;19.45;;
62006;SDS011;47963;53.008;6.754;2022-07-30T06:08:05;23.63;;;21.13;;
62006;SDS011;47963;53.008;6.754;2022-07-30T06:10:31;22.83;;;20.30;;
62006;SDS011;47963;53.008;6.754;2022-07-30T06:12:57;23.35;;;19.42;;
62006;SDS011;47963;53.008;6.754;2022-07-30T06:15:23;21.95;;;19.63;;
62006;SDS011;47963;53.008;6.754;2022-07-30T06:17:49;22.00;;;19.58;;
62006;SDS011;47963;53.008;6.754;2022-07-30T06:20:15;22.85;;;18.75;;
62006;SDS011;47963;53.008;6.754;2022-07-30T06:22:43;25.55;;;20.00;;
62006;SDS011;47963;53.008;6.754;2022-07-30T06:25:09;22.80;;;18.80;;
62006;SDS011;47963;53.008;6.754;2022-07-30T06:27:34;22.95;;;18.90;;
62006;SDS011;47963;53.008;6.754;2022-07-30T06:30:01;21.58;;;18.52;;
62006;SDS011;47963;53.008;6.754;2022-07-30T06:32:28;22.65;;;18.15;;
62006;SDS011;47963;53.008;6.754;2022-07-30T06:34:54;21.75;;;18.42;;
62006;SDS011;47963;53.008;6.754;2022-07-30T06:37:20;22.95;;;18.33;;
62006;SDS011;47963;53.008;6.754;2022-07-30T06:39:46;20.20;;;18.08;;
62006;SDS011;47963;53.008;6.754;2022-07-30T06:42:12;19.95;;;17.58;;
62006;SDS011;47963;53.008;6.754;2022-07-30T06:44:38;19.17;;;17.13;;
62006;SDS011;47963;53.008;6.754;2022-07-30T06:47:04;20.75;;;17.55;;
62006;SDS011;47963;53.008;6.754;2022-07-30T06:49:30;20.38;;;16.88;;
62006;SDS011;47963;53.008;6.754;2022-07-30T06:51:57;20.17;;;16.50;;
62006;SDS011;47963;53.008;6.754;2022-07-30T06:54:22;19.15;;;16.70;;
62006;SDS011;47963;53.008;6.754;2022-07-30T06:56:48;18.95;;;16.95;;
62006;SDS011;47963;53.008;6.754;2022-07-30T06:59:14;19.08;;;16.33;;
62006;SDS011;47963;53.008;6.754;2022-07-30T07:01:39;21.05;;;15.90;;
62006;SDS011;47963;53.008;6.754;2022-07-30T07:04:05;19.73;;;14.90;;
62006;SDS011;47963;53.008;6.754;2022-07-30T07:06:31;23.02;;;15.50;;
62006;SDS011;47963;53.008;6.754;2022-07-30T07:08:57;20.60;;;15.43;;
62006;SDS011;47963;53.008;6.754;2022-07-30T07:11:23;18.52;;;14.32;;
62006;SDS011;47963;53.008;6.754;2022-07-30T07:13:48;20.00;;;13.93;;
62006;SDS011;47963;53.008;6.754;2022-07-30T07:16:14;20.83;;;15.18;;
62006;SDS011;47963;53.008;6.754;2022-07-30T07:18:40;19.77;;;14.70;;
62006;SDS011;47963;53.008;6.754;2022-07-30T07:21:07;20.90;;;14.80;;
62006;SDS011;47963;53.008;6.754;2022-07-30T07:23:33;23.42;;;15.38;;
62006;SDS011;47963;53.008;6.754;2022-07-30T07:25:59;22.98;;;16.95;;
62006;SDS011;47963;53.008;6.754;2022-07-30T07:28:25;24.23;;;16.30;;
62006;SDS011;47963;53.008;6.754;2022-07-30T07:30:51;26.90;;;17.05;;
62006;SDS011;47963;53.008;6.754;2022-07-30T07:33:16;24.17;;;16.13;;
62006;SDS011;47963;53.008;6.754;2022-07-30T07:35:42;23.15;;;15.73;;
62006;SDS011;47963;53.008;6.754;2022-07-30T07:38:08;24.98;;;16.55;;
62006;SDS011;47963;53.008;6.754;2022-07-30T07:40:34;21.70;;;15.05;;
62006;SDS011;47963;53.008;6.754;2022-07-30T07:42:59;22.50;;;15.35;;
62006;SDS011;47963;53.008;6.754;2022-07-30T07:45:25;23.58;;;15.52;;
62006;SDS011;47963;53.008;6.754;2022-07-30T07:47:51;21.27;;;15.27;;
62006;SDS011;47963;53.008;6.754;2022-07-30T07:50:17;20.05;;;13.85;;
62006;SDS011;47963;53.008;6.754;2022-07-30T07:52:43;20.08;;;13.95;;
62006;SDS011;47963;53.008;6.754;2022-07-30T07:55:09;21.88;;;13.30;;
62006;SDS011;47963;53.008;6.754;2022-07-30T07:57:42;19.48;;;12.70;;
62006;SDS011;47963;53.008;6.754;2022-07-30T08:00:09;17.77;;;12.90;;
62006;SDS011;47963;53.008;6.754;2022-07-30T08:02:36;21.23;;;14.00;;
62006;SDS011;47963;53.008;6.754;2022-07-30T08:05:03;20.13;;;12.75;;
62006;SDS011;47963;53.008;6.754;2022-07-30T08:07:30;17.63;;;12.45;;
62006;SDS011;47963;53.008;6.754;2022-07-30T08:09:56;20.40;;;13.35;;
62006;SDS011;47963;53.008;6.754;2022-07-30T08:12:22;19.60;;;12.82;;
62006;SDS011;47963;53.008;6.754;2022-07-30T08:14:48;17.80;;;11.63;;
62006;SDS011;47963;53.008;6.754;2022-07-30T08:17:14;18.92;;;12.48;;
62006;SDS011;47963;53.008;6.754;2022-07-30T08:19:39;21.48;;;12.32;;
62006;SDS011;47963;53.008;6.754;2022-07-30T08:22:05;18.50;;;11.57;;
62006;SDS011;47963;53.008;6.754;2022-07-30T08:24:31;18.83;;;11.30;;
62006;SDS011;47963;53.008;6.754;2022-07-30T08:26:56;16.50;;;11.13;;
62006;SDS011;47963;53.008;6.754;2022-07-30T08:29:25;17.23;;;13.05;;
62006;SDS011;47963;53.008;6.754;2022-07-30T08:31:51;16.45;;;12.18;;
62006;SDS011;47963;53.008;6.754;2022-07-30T08:34:17;18.70;;;11.98;;
62006;SDS011;47963;53.008;6.754;2022-07-30T08:36:44;18.45;;;10.60;;
62006;SDS011;47963;53.008;6.754;2022-07-30T08:39:10;18.95;;;12.05;;
62006;SDS011;47963;53.008;6.754;2022-07-30T08:41:35;18.38;;;11.43;;
62006;SDS011;47963;53.008;6.754;2022-07-30T08:44:01;15.32;;;9.88;;
62006;SDS011;47963;53.008;6.754;2022-07-30T08:46:28;17.75;;;10.43;;
62006;SDS011;47963;53.008;6.754;2022-07-30T08:48:56;15.05;;;9.45;;
62006;SDS011;47963;53.008;6.754;2022-07-30T08:51:23;16.27;;;10.15;;
62006;SDS011;47963;53.008;6.754;2022-07-30T08:53:49;15.75;;;9.85;;
62006;SDS011;47963;53.008;6.754;2022-07-30T08:56:15;18.05;;;10.70;;
62006;SDS011;47963;53.008;6.754;2022-07-30T08:58:41;15.60;;;10.18;;
62006;SDS011;47963;53.008;6.754;2022-07-30T09:01:07;15.45;;;8.95;;
62006;SDS011;47963;53.008;6.754;2022-07-30T09:03:33;18.73;;;9.40;;
62006;SDS011;47963;53.008;6.754;2022-07-30T09:06:02;15.45;;;8.63;;
62006;SDS011;47963;53.008;6.754;2022-07-30T09:08:29;13.90;;;7.72;;
62006;SDS011;47963;53.008;6.754;2022-07-30T09:10:55;14.50;;;8.35;;
62006;SDS011;47963;53.008;6.754;2022-07-30T09:13:28;14.82;;;9.02;;
62006;SDS011;47963;53.008;6.754;2022-07-30T09:15:56;13.57;;;8.38;;
62006;SDS011;47963;53.008;6.754;2022-07-30T09:18:27;15.02;;;8.85;;
62006;SDS011;47963;53.008;6.754;2022-07-30T09:20:57;15.82;;;8.43;;
62006;SDS011;47963;53.008;6.754;2022-07-30T09:23:37;14.18;;;8.85;;
62006;SDS011;47963;53.008;6.754;2022-07-30T09:26:02;16.27;;;8.00;;
62006;SDS011;47963;53.008;6.754;2022-07-30T09:28:29;15.00;;;7.85;;
62006;SDS011;47963;53.008;6.754;2022-07-30T09:30:58;13.65;;;6.80;;
62006;SDS011;47963;53.008;6.754;2022-07-30T09:33:43;11.68;;;6.28;;
62006;SDS011;47963;53.008;6.754;2022-07-30T09:36:11;13.98;;;6.07;;
62006;SDS011;47963;53.008;6.754;2022-07-30T09:38:40;12.90;;;7.00;;
62006;SDS011;47963;53.008;6.754;2022-07-30T09:41:09;14.93;;;6.57;;
62006;SDS011;47963;53.008;6.754;2022-07-30T09:43:46;13.85;;;6.72;;
62006;SDS011;47963;53.008;6.754;2022-07-30T09:46:13;10.80;;;6.15;;
62006;SDS011;47963;53.008;6.754;2022-07-30T09:48:40;13.85;;;6.72;;
62006;SDS011;47963;53.008;6.754;2022-07-30T09:51:06;13.57;;;5.85;;
62006;SDS011;47963;53.008;6.754;2022-07-30T09:53:32;12.82;;;6.05;;
62006;SDS011;47963;53.008;6.754;2022-07-30T09:55:59;10.13;;;5.40;;
62006;SDS011;47963;53.008;6.754;2022-07-30T09:58:37;14.00;;;5.40;;
62006;SDS011;47963;53.008;6.754;2022-07-30T10:01:04;12.70;;;6.10;;
62006;SDS011;47963;53.008;6.754;2022-07-30T10:03:30;12.85;;;5.35;;
62006;SDS011;47963;53.008;6.754;2022-07-30T10:05:57;10.18;;;5.47;;
62006;SDS011;47963;53.008;6.754;2022-07-30T10:11:18;12.48;;;5.45;;
62006;SDS011;47963;53.008;6.754;2022-07-30T10:13:48;13.07;;;6.32;;
62006;SDS011;47963;53.008;6.754;2022-07-30T10:16:17;11.45;;;6.07;;
62006;SDS011;47963;53.008;6.754;2022-07-30T10:18:43;11.32;;;5.22;;
62006;SDS011;47963;53.008;6.754;2022-07-30T10:21:09;12.15;;;5.88;;
62006;SDS011;47963;53.008;6.754;2022-07-30T10:23:35;11.18;;;5.68;;
62006;SDS011;47963;53.008;6.754;2022-07-30T10:26:02;11.75;;;6.03;;
62006;SDS011;47963;53.008;6.754;2022-07-30T10:28:28;15.38;;;6.45;;
62006;SDS011;47963;53.008;6.754;2022-07-30T10:30:55;11.50;;;6.35;;
62006;SDS011;47963;53.008;6.754;2022-07-30T10:33:23;11.75;;;6.00;;
62006;SDS011;47963;53.008;6.754;2022-07-30T10:35:51;12.32;;;5.32;;
62006;SDS011;47963;53.008;6.754;2022-07-30T10:38:17;10.68;;;5.15;;
62006;SDS011;47963;53.008;6.754;2022-07-30T10:40:47;12.20;;;5.45;;
62006;SDS011;47963;53.008;6.754;2022-07-30T10:49:08;11.57;;;4.72;;
62006;SDS011;47963;53.008;6.754;2022-07-30T10:51:42;11.52;;;4.95;;
62006;SDS011;47963;53.008;6.754;2022-07-30T10:57:06;12.65;;;4.78;;
62006;SDS011;47963;53.008;6.754;2022-07-30T11:02:17;10.93;;;4.65;;
62006;SDS011;47963;53.008;6.754;2022-07-30T11:04:43;11.93;;;4.68;;
62006;SDS011;47963;53.008;6.754;2022-07-30T11:09:51;11.23;;;4.30;;
62006;SDS011;47963;53.008;6.754;2022-07-30T11:15:12;10.38;;;4.18;;
62006;SDS011;47963;53.008;6.754;2022-07-30T11:20:33;9.68;;;4.25;;
62006;SDS011;47963;53.008;6.754;2022-07-30T11:28:00;11.90;;;4.57;;
62006;SDS011;47963;53.008;6.754;2022-07-30T11:32:55;13.77;;;4.50;;
62006;SDS011;47963;53.008;6.754;2022-07-30T11:35:41;12.35;;;4.03;;
62006;SDS011;47963;53.008;6.754;2022-07-30T11:38:13;10.75;;;4.13;;
62006;SDS011;47963;53.008;6.754;2022-07-30T11:45:44;10.00;;;4.75;;
62006;SDS011;47963;53.008;6.754;2022-07-30T11:48:15;12.80;;;4.40;;
62006;SDS011;47963;53.008;6.754;2022-07-30T11:50:43;8.70;;;4.10;;
62006;SDS011;47963;53.008;6.754;2022-07-30T11:53:17;11.63;;;4.30;;
62006;SDS011;47963;53.008;6.754;2022-07-30T11:55:45;9.02;;;4.00;;
62006;SDS011;47963;53.008;6.754;2022-07-30T11:58:25;9.80;;;4.30;;
62006;SDS011;47963;53.008;6.754;2022-07-30T12:01:05;9.75;;;4.18;;
62006;SDS011;47963;53.008;6.754;2022-07-30T12:03:38;12.02;;;4.28;;
62006;SDS011;47963;53.008;6.754;2022-07-30T12:06:06;9.77;;;4.15;;
62006;SDS011;47963;53.008;6.754;2022-07-30T12:08:43;10.35;;;4.20;;
62006;SDS011;47963;53.008;6.754;2022-07-30T12:11:10;11.75;;;4.15;;
62006;SDS011;47963;53.008;6.754;2022-07-30T12:13:37;9.57;;;3.95;;
62006;SDS011;47963;53.008;6.754;2022-07-30T12:16:07;9.10;;;3.90;;
62006;SDS011;47963;53.008;6.754;2022-07-30T12:18:34;13.00;;;4.30;;
62006;SDS011;47963;53.008;6.754;2022-07-30T12:21:04;9.80;;;4.03;;
62006;SDS011;47963;53.008;6.754;2022-07-30T12:23:37;9.70;;;3.45;;
62006;SDS011;47963;53.008;6.754;2022-07-30T12:26:05;11.38;;;3.63;;
62006;SDS011;47963;53.008;6.754;2022-07-30T12:28:33;8.10;;;3.58;;
62006;SDS011;47963;53.008;6.754;2022-07-30T12:30:59;8.32;;;3.50;;
62006;SDS011;47963;53.008;6.754;2022-07-30T12:33:28;7.97;;;3.78;;
62006;SDS011;47963;53.008;6.754;2022-07-30T12:35:55;11.13;;;3.80;;
62006;SDS011;47963;53.008;6.754;2022-07-30T12:38:25;8.90;;;3.42;;
62006;SDS011;47963;53.008;6.754;2022-07-30T12:43:48;8.63;;;3.55;;
62006;SDS011;47963;53.008;6.754;2022-07-30T12:46:19;7.95;;;3.67;;
62006;SDS011;47963;53.008;6.754;2022-07-30T12:48:51;9.60;;;3.30;;
62006;SDS011;47963;53.008;6.754;2022-07-30T12:51:19;8.85;;;3.30;;
62006;SDS011;47963;53.008;6.754;2022-07-30T12:53:48;8.68;;;3.80;;
62006;SDS011;47963;53.008;6.754;2022-07-30T12:56:18;8.23;;;3.10;;
62006;SDS011;47963;53.008;6.754;2022-07-30T12:58:45;8.60;;;3.60;;
62006;SDS011;47963;53.008;6.754;2022-07-30T13:01:11;9.63;;;3.45;;
62006;SDS011;47963;53.008;6.754;2022-07-30T13:03:37;9.02;;;3.03;;
62006;SDS011;47963;53.008;6.754;2022-07-30T13:06:13;9.65;;;3.60;;
62006;SDS011;47963;53.008;6.754;2022-07-30T13:08:45;8.80;;;3.10;;
62006;SDS011;47963;53.008;6.754;2022-07-30T13:11:13;8.35;;;3.35;;
62006;SDS011;47963;53.008;6.754;2022-07-30T13:13:40;9.45;;;3.30;;
62006;SDS011;47963;53.008;6.754;2022-07-30T13:16:06;11.65;;;3.30;;
62006;SDS011;47963;53.008;6.754;2022-07-30T13:18:32;8.18;;;3.20;;
62006;SDS011;47963;53.008;6.754;2022-07-30T13:20:59;7.25;;;2.63;;
62006;SDS011;47963;53.008;6.754;2022-07-30T13:23:25;7.18;;;2.80;;
62006;SDS011;47963;53.008;6.754;2022-07-30T13:25:51;6.65;;;2.80;;
62006;SDS011;47963;53.008;6.754;2022-07-30T13:28:18;8.52;;;3.00;;
62006;SDS011;47963;53.008;6.754;2022-07-30T13:30:44;8.13;;;3.00;;
62006;SDS011;47963;53.008;6.754;2022-07-30T13:33:10;8.30;;;3.30;;
62006;SDS011;47963;53.008;6.754;2022-07-30T13:35:35;7.72;;;2.97;;
62006;SDS011;47963;53.008;6.754;2022-07-30T13:38:02;7.32;;;2.63;;
62006;SDS011;47963;53.008;6.754;2022-07-30T13:40:30;5.68;;;2.30;;
62006;SDS011;47963;53.008;6.754;2022-07-30T13:42:57;8.50;;;2.70;;
62006;SDS011;47963;53.008;6.754;2022-07-30T13:45:26;8.23;;;2.80;;
62006;SDS011;47963;53.008;6.754;2022-07-30T13:47:52;8.07;;;2.40;;
62006;SDS011;47963;53.008;6.754;2022-07-30T13:50:18;5.95;;;2.47;;
62006;SDS011;47963;53.008;6.754;2022-07-30T13:52:44;7.88;;;2.70;;
62006;SDS011;47963;53.008;6.754;2022-07-30T13:55:10;6.60;;;2.55;;
62006;SDS011;47963;53.008;6.754;2022-07-30T13:57:36;6.18;;;2.40;;
62006;SDS011;47963;53.008;6.754;2022-07-30T14:00:02;8.30;;;2.70;;
62006;SDS011;47963;53.008;6.754;2022-07-30T14:02:29;5.95;;;2.30;;
62006;SDS011;47963;53.008;6.754;2022-07-30T14:04:55;5.65;;;2.30;;
62006;SDS011;47963;53.008;6.754;2022-07-30T14:07:21;5.50;;;2.47;;
62006;SDS011;47963;53.008;6.754;2022-07-30T14:09:46;7.20;;;2.60;;
62006;SDS011;47963;53.008;6.754;2022-07-30T14:12:12;7.47;;;2.85;;
62006;SDS011;47963;53.008;6.754;2022-07-30T14:14:38;6.78;;;2.30;;
62006;SDS011;47963;53.008;6.754;2022-07-30T14:17:03;6.78;;;2.50;;
62006;SDS011;47963;53.008;6.754;2022-07-30T14:19:29;8.95;;;2.78;;
62006;SDS011;47963;53.008;6.754;2022-07-30T14:21:55;6.30;;;2.42;;
62006;SDS011;47963;53.008;6.754;2022-07-30T14:24:20;5.82;;;2.20;;
62006;SDS011;47963;53.008;6.754;2022-07-30T14:26:47;6.38;;;2.70;;
62006;SDS011;47963;53.008;6.754;2022-07-30T14:29:14;5.95;;;2.22;;
62006;SDS011;47963;53.008;6.754;2022-07-30T14:31:41;6.90;;;2.67;;
62006;SDS011;47963;53.008;6.754;2022-07-30T14:34:07;6.25;;;2.50;;
62006;SDS011;47963;53.008;6.754;2022-07-30T14:36:33;6.07;;;2.25;;
62006;SDS011;47963;53.008;6.754;2022-07-30T14:38:59;6.32;;;2.42;;
62006;SDS011;47963;53.008;6.754;2022-07-30T14:41:27;6.40;;;2.20;;
62006;SDS011;47963;53.008;6.754;2022-07-30T14:43:53;6.10;;;2.05;;
62006;SDS011;47963;53.008;6.754;2022-07-30T14:46:19;6.43;;;2.30;;
62006;SDS011;47963;53.008;6.754;2022-07-30T14:48:44;6.05;;;2.10;;
62006;SDS011;47963;53.008;6.754;2022-07-30T14:51:10;4.95;;;2.00;;
62006;SDS011;47963;53.008;6.754;2022-07-30T14:53:36;5.60;;;1.90;;
62006;SDS011;47963;53.008;6.754;2022-07-30T14:56:02;5.03;;;1.92;;
62006;SDS011;47963;53.008;6.754;2022-07-30T14:58:28;4.78;;;1.90;;
62006;SDS011;47963;53.008;6.754;2022-07-30T15:00:53;7.88;;;2.00;;
62006;SDS011;47963;53.008;6.754;2022-07-30T15:03:19;6.68;;;1.95;;
62006;SDS011;47963;53.008;6.754;2022-07-30T15:05:45;6.40;;;2.22;;
62006;SDS011;47963;53.008;6.754;2022-07-30T15:08:10;5.53;;;2.28;;
62006;SDS011;47963;53.008;6.754;2022-07-30T15:10:36;6.32;;;2.15;;
62006;SDS011;47963;53.008;6.754;2022-07-30T15:13:03;6.63;;;1.98;;
62006;SDS011;47963;53.008;6.754;2022-07-30T15:15:29;6.43;;;2.10;;